Aérodrome :
LOGIN :

S'inscrire | Disclaimer

   EN    FR    IT 

 










Légende :    VFR   VFR Marginal   IFR   IFR Intensif   IFR Très Intensif
Visi : 
Plafond : 
>= 8 km
>= 3000ft
5 à 8 km
1000 à 3000 ft
1500m à 5 km
500 à 1000 ft
800 à 1500m
200 à 500 ft
< 800m
< 200 ft
Symboles :   Orages  Brouillard  Fortes neiges  Fortes précipitations  Vent > 20 kt
SIGMETs :   Divers  Orages  Givrage  Turbulence  Onde Orograph.  Cendres Volcan.






- Altitude de l'aérodrome : 215 ft
- Code IATA : ABZ


EGPD - Aberdeen / Dyce

DERNIER METAR :
  • 230850Z AUTO 35008KT 9999 BKN017 16/12 Q1018 NOSIG

METARs EXPIRÉS :
  • 230820Z 35009KT 9999 SCT015 16/12 Q1018 NOSIG
  • 230750Z 35009KT 9999 BKN015 15/12 Q1017 NOSIG
  • 230720Z 34010KT 9999 SCT009 15/12 Q1017 NOSIG
  • 230650Z 33008KT 9999 SCT009 14/13 Q1017 NOSIG
  • 230620Z AUTO 34007KT 320V020 9999 SCT008 14/13 Q1016 NOSIG
  • 230550Z AUTO 33008KT 9999 BKN007 14/13 Q1016 TEMPO SCT007
  • 230520Z AUTO 33005KT 9999 BKN005 OVC024 14/13 Q1016 TEMPO SCT005
  • 230450Z AUTO 33005KT 9999 BKN005 OVC027 13/13 Q1016 TEMPO SCT005
  • 230420Z AUTO 32007KT 9999 BKN003 BKN010 OVC024 13/13 Q1015 TEMPO BKN006

TAF TAF EGPD
Valide du 23 à 06h jusqu'au 24 à 06h UTC


230458Z 2306/2406 33004KT 9999 SCT035
PROB30
TEMPO 2306/2308 BKN006
PROB30
TEMPO 2309/2312 7000 SHRA
BECMG 2312/2315 14010KT



MET'MAP, la Météo Aéronautique d'un coup d'oeil ! - Copyright ORBIFLY Décembre 2007 - Disclaimer

ORBIFLY MET'MAP TEAM :

Programmation & Développement : Alexandra Zaïnal
Sur une idée originale de : Baudouin d'Aumeries
Soutien technique & logistique : Manuel Goepfert
Assistance : Marc-Olivier Méhu




SOURCES & CREDITS :

   NOAA